Wetterdaten Mai 2003

Datum Tiefsttemp. Hchsttemp. Luftdruck Regen Wind
01.05.2003 6,0 C 15,4 C 1016 hpa 1,2 mm 16,2 km/h
02.05.2003 7,2 C 20,3 C 1009 hpa 0,0 mm 25,8 km/h
03.05.2003 6,7 C 15,7 C 1017 hpa 1,0 mm 19,4 km/h
04.05.2003 5,9 C 22,6 C 1016 hpa 0,0 mm 14,9 km/h
05.05.2003 14,7 C 26,7 C 1013 hpa 0,0 mm 13,3 km/h
06.05.2003 8,8 C 14,6 C 1019 hpa 2,7 mm 8,6 km/h
07.05.2003 5,1 C 17,7 C 1022 hpa 0,0 mm 7,4 km/h
08.05.2003 9,2 C 25,2 C 1017 hpa 0,0 mm 13,3 km/h
09.05.2003 9,8 C 16,5 C 1016 hpa 4,7 mm 11,9 km/h
10.05.2003 5,8 C 18,6 C 1020 hpa 0,0 mm 12,6 km/h
11.05.2003 6,3 C 23,4 C 1018 hpa 0,0 mm 8,6 km/h
12.05.2003 9,1 C 19,7 C 1015 hpa 0,0 mm 14,8 km/h
13.05.2003 4,8 C 14,4 C 1015 hpa 6,8 mm 15,3 km/h
14.05.2003 2,3 C 12,9 C 1018 hpa 4,5 mm  10,1 km/h
15.05.2003 2,6 C 14,7 C 1021 hpa  6,9 mm 4,3 km/h
16.05.2003 2,4 C 19,2 C 1015 hpa  0,0 mm 6,5 km/h
17.05.2003 9,5 C 16,7 C 1012 hpa 0,4 mm 12,6 km/h
18.05.2003 10,5 C 20,2 C 1012 hpa 8,1 mm 14,3 km/h
19.05.2003 8,4 C 13,4 C 1010 hpa 14,0 mm 21,6 km/h
20.05.2003 6,5 C 15,2 C 1015 hpa 0,2 mm 18,7 km/h
21.05.2003 6,5 C 14,7 C 1020 hpa 3,6 mm 16,9 km/h
22.05.2003 8,8 C 16,8 C 1021 hpa 2,4 mm 13,6 km/h
23.05.2003 12,1 C 20,8 C 1014 hpa 0,0 mm 14,8 km/h
24.05.2003 11,2 C 19,5 C 1008 hpa 7,6 mm 10,1 km/h
25.05.2003 10,2 C 18,7 C 1014 hpa 0,6 mm 16,5 km/h
26.05.2003 7,2 C 21,7 C 1022 hpa 0,0 mm 9,4 km/h
27.05.2003 10,0 C 21,9 C 1023 hpa 0,0 mm 8,6 km/h
28.05.2003 11,9 C 23,4C 1021 hpa 0,0 mm 10,1 km/h
29.05.2003 11,1 C 25,5 C 1017 hpa 0,0 mm 7,4 km/h
30.05.2003 14,8 C 26,6 C 1015 hpa 0,0 mm 5,0 km/h
31.05.2003 15,6 C 27,4 C 1013 hpa 0,0 mm 7,6 km/h



Kostenlose Webseite von Beepworld
 
Verantwortlich für den Inhalt dieser Seite ist ausschließlich der
Autor dieser Homepage, kontaktierbar über dieses Formular!